sensor_id;sensor_type;location;lat;lon;timestamp;P1;durP1;ratioP1;P2;durP2;ratioP2
75542;SDS011;64129;53.508;10.476;2023-12-14T00:00:51;6.13;;;2.72;;
75542;SDS011;64129;53.508;10.476;2023-12-14T00:03:21;5.30;;;2.95;;
75542;SDS011;64129;53.508;10.476;2023-12-14T00:05:48;5.55;;;3.55;;
75542;SDS011;64129;53.508;10.476;2023-12-14T00:08:14;4.78;;;2.75;;
75542;SDS011;64129;53.508;10.476;2023-12-14T00:10:42;4.15;;;2.70;;
75542;SDS011;64129;53.508;10.476;2023-12-14T00:13:08;5.32;;;2.92;;
75542;SDS011;64129;53.508;10.476;2023-12-14T00:15:35;5.10;;;2.78;;
75542;SDS011;64129;53.508;10.476;2023-12-14T00:18:02;5.75;;;2.88;;
75542;SDS011;64129;53.508;10.476;2023-12-14T00:20:29;4.88;;;2.67;;
75542;SDS011;64129;53.508;10.476;2023-12-14T00:22:56;4.75;;;2.50;;
75542;SDS011;64129;53.508;10.476;2023-12-14T00:25:23;5.18;;;2.80;;
75542;SDS011;64129;53.508;10.476;2023-12-14T00:27:49;4.65;;;2.60;;
75542;SDS011;64129;53.508;10.476;2023-12-14T00:30:16;4.82;;;3.03;;
75542;SDS011;64129;53.508;10.476;2023-12-14T00:32:43;8.27;;;3.03;;
75542;SDS011;64129;53.508;10.476;2023-12-14T00:35:10;5.55;;;2.65;;
75542;SDS011;64129;53.508;10.476;2023-12-14T00:37:37;5.05;;;2.60;;
75542;SDS011;64129;53.508;10.476;2023-12-14T00:40:04;5.63;;;2.88;;
75542;SDS011;64129;53.508;10.476;2023-12-14T00:42:31;4.07;;;2.53;;
75542;SDS011;64129;53.508;10.476;2023-12-14T00:44:58;5.97;;;2.83;;
75542;SDS011;64129;53.508;10.476;2023-12-14T00:47:24;5.57;;;2.97;;
75542;SDS011;64129;53.508;10.476;2023-12-14T00:49:51;4.80;;;2.72;;
75542;SDS011;64129;53.508;10.476;2023-12-14T00:52:18;4.20;;;2.58;;
75542;SDS011;64129;53.508;10.476;2023-12-14T00:54:48;4.72;;;2.28;;
75542;SDS011;64129;53.508;10.476;2023-12-14T00:57:15;5.05;;;2.25;;
75542;SDS011;64129;53.508;10.476;2023-12-14T00:59:42;5.25;;;2.25;;
75542;SDS011;64129;53.508;10.476;2023-12-14T01:02:09;3.92;;;2.17;;
75542;SDS011;64129;53.508;10.476;2023-12-14T01:04:35;4.90;;;2.08;;
75542;SDS011;64129;53.508;10.476;2023-12-14T01:07:02;4.25;;;2.00;;
75542;SDS011;64129;53.508;10.476;2023-12-14T01:09:30;5.72;;;2.22;;
75542;SDS011;64129;53.508;10.476;2023-12-14T01:11:57;2.42;;;1.75;;
75542;SDS011;64129;53.508;10.476;2023-12-14T01:14:23;5.10;;;1.80;;
75542;SDS011;64129;53.508;10.476;2023-12-14T01:16:50;2.63;;;1.80;;
75542;SDS011;64129;53.508;10.476;2023-12-14T01:19:17;2.78;;;1.80;;
75542;SDS011;64129;53.508;10.476;2023-12-14T01:21:44;4.53;;;2.05;;
75542;SDS011;64129;53.508;10.476;2023-12-14T01:24:10;3.22;;;1.58;;
75542;SDS011;64129;53.508;10.476;2023-12-14T01:26:37;4.50;;;1.65;;
75542;SDS011;64129;53.508;10.476;2023-12-14T01:29:04;3.28;;;1.67;;
75542;SDS011;64129;53.508;10.476;2023-12-14T01:31:31;2.75;;;1.60;;
75542;SDS011;64129;53.508;10.476;2023-12-14T01:33:58;2.83;;;1.50;;
75542;SDS011;64129;53.508;10.476;2023-12-14T01:36:25;4.47;;;1.85;;
75542;SDS011;64129;53.508;10.476;2023-12-14T01:38:52;2.88;;;1.40;;
75542;SDS011;64129;53.508;10.476;2023-12-14T01:41:19;2.90;;;1.50;;
75542;SDS011;64129;53.508;10.476;2023-12-14T01:43:46;2.20;;;1.75;;
75542;SDS011;64129;53.508;10.476;2023-12-14T01:46:13;2.63;;;1.83;;
75542;SDS011;64129;53.508;10.476;2023-12-14T01:48:41;1.58;;;1.20;;
75542;SDS011;64129;53.508;10.476;2023-12-14T01:51:08;2.60;;;1.42;;
75542;SDS011;64129;53.508;10.476;2023-12-14T01:53:35;2.17;;;1.15;;
75542;SDS011;64129;53.508;10.476;2023-12-14T01:56:02;3.55;;;1.20;;
75542;SDS011;64129;53.508;10.476;2023-12-14T01:58:29;2.50;;;1.40;;
75542;SDS011;64129;53.508;10.476;2023-12-14T02:01:14;2.40;;;1.30;;
75542;SDS011;64129;53.508;10.476;2023-12-14T02:03:46;1.38;;;1.08;;
75542;SDS011;64129;53.508;10.476;2023-12-14T02:06:15;1.88;;;1.30;;
75542;SDS011;64129;53.508;10.476;2023-12-14T02:08:42;2.17;;;1.05;;
75542;SDS011;64129;53.508;10.476;2023-12-14T02:11:08;1.55;;;1.15;;
75542;SDS011;64129;53.508;10.476;2023-12-14T02:13:35;3.03;;;1.23;;
75542;SDS011;64129;53.508;10.476;2023-12-14T02:16:02;4.18;;;1.60;;
75542;SDS011;64129;53.508;10.476;2023-12-14T02:18:29;2.38;;;1.15;;
75542;SDS011;64129;53.508;10.476;2023-12-14T02:20:56;2.20;;;1.30;;
75542;SDS011;64129;53.508;10.476;2023-12-14T02:23:22;1.40;;;1.30;;
75542;SDS011;64129;53.508;10.476;2023-12-14T02:25:49;3.67;;;1.70;;
75542;SDS011;64129;53.508;10.476;2023-12-14T02:28:16;1.70;;;1.60;;
75542;SDS011;64129;53.508;10.476;2023-12-14T02:30:43;2.08;;;1.50;;
75542;SDS011;64129;53.508;10.476;2023-12-14T02:33:10;1.92;;;1.20;;
75542;SDS011;64129;53.508;10.476;2023-12-14T02:35:38;1.90;;;1.42;;
75542;SDS011;64129;53.508;10.476;2023-12-14T02:38:05;2.83;;;1.17;;
75542;SDS011;64129;53.508;10.476;2023-12-14T02:40:32;1.85;;;1.35;;
75542;SDS011;64129;53.508;10.476;2023-12-14T02:42:58;2.42;;;1.20;;
75542;SDS011;64129;53.508;10.476;2023-12-14T02:45:25;2.60;;;1.25;;
75542;SDS011;64129;53.508;10.476;2023-12-14T02:47:52;1.55;;;1.33;;
75542;SDS011;64129;53.508;10.476;2023-12-14T02:50:20;2.22;;;1.40;;
75542;SDS011;64129;53.508;10.476;2023-12-14T02:52:47;1.20;;;1.10;;
75542;SDS011;64129;53.508;10.476;2023-12-14T02:55:14;2.45;;;1.55;;
75542;SDS011;64129;53.508;10.476;2023-12-14T02:57:41;3.05;;;1.50;;
75542;SDS011;64129;53.508;10.476;2023-12-14T03:00:08;3.10;;;1.58;;
75542;SDS011;64129;53.508;10.476;2023-12-14T03:02:35;2.92;;;1.63;;
75542;SDS011;64129;53.508;10.476;2023-12-14T03:05:02;2.35;;;1.70;;
75542;SDS011;64129;53.508;10.476;2023-12-14T03:07:28;1.92;;;1.60;;
75542;SDS011;64129;53.508;10.476;2023-12-14T03:09:55;2.42;;;1.60;;
75542;SDS011;64129;53.508;10.476;2023-12-14T03:12:22;2.47;;;1.48;;
75542;SDS011;64129;53.508;10.476;2023-12-14T03:14:49;3.67;;;1.73;;
75542;SDS011;64129;53.508;10.476;2023-12-14T03:17:15;5.57;;;1.80;;
75542;SDS011;64129;53.508;10.476;2023-12-14T03:19:42;5.10;;;2.10;;
75542;SDS011;64129;53.508;10.476;2023-12-14T03:22:09;3.67;;;1.92;;
75542;SDS011;64129;53.508;10.476;2023-12-14T03:24:36;3.65;;;1.92;;
75542;SDS011;64129;53.508;10.476;2023-12-14T03:27:03;3.00;;;1.73;;
75542;SDS011;64129;53.508;10.476;2023-12-14T03:29:30;2.70;;;1.80;;
75542;SDS011;64129;53.508;10.476;2023-12-14T03:31:57;3.13;;;1.95;;
75542;SDS011;64129;53.508;10.476;2023-12-14T03:34:24;3.15;;;2.20;;
75542;SDS011;64129;53.508;10.476;2023-12-14T03:36:51;3.33;;;2.10;;
75542;SDS011;64129;53.508;10.476;2023-12-14T03:39:18;3.50;;;1.77;;
75542;SDS011;64129;53.508;10.476;2023-12-14T03:41:45;5.05;;;2.25;;
75542;SDS011;64129;53.508;10.476;2023-12-14T03:44:12;4.20;;;2.15;;
75542;SDS011;64129;53.508;10.476;2023-12-14T03:46:39;4.13;;;2.53;;
75542;SDS011;64129;53.508;10.476;2023-12-14T03:49:05;3.08;;;2.35;;
75542;SDS011;64129;53.508;10.476;2023-12-14T03:51:32;4.03;;;2.22;;
75542;SDS011;64129;53.508;10.476;2023-12-14T03:53:59;5.25;;;2.33;;
75542;SDS011;64129;53.508;10.476;2023-12-14T03:56:26;4.68;;;2.45;;
75542;SDS011;64129;53.508;10.476;2023-12-14T03:58:52;4.63;;;2.55;;
75542;SDS011;64129;53.508;10.476;2023-12-14T04:01:20;6.47;;;2.60;;
75542;SDS011;64129;53.508;10.476;2023-12-14T04:03:47;4.80;;;2.53;;
75542;SDS011;64129;53.508;10.476;2023-12-14T04:06:14;4.30;;;2.38;;
75542;SDS011;64129;53.508;10.476;2023-12-14T04:08:41;4.78;;;2.70;;
75542;SDS011;64129;53.508;10.476;2023-12-14T04:11:08;7.75;;;2.38;;
75542;SDS011;64129;53.508;10.476;2023-12-14T04:13:35;7.55;;;2.75;;
75542;SDS011;64129;53.508;10.476;2023-12-14T04:16:02;3.55;;;2.30;;
75542;SDS011;64129;53.508;10.476;2023-12-14T04:18:30;5.53;;;3.03;;
75542;SDS011;64129;53.508;10.476;2023-12-14T04:20:57;4.40;;;3.00;;
75542;SDS011;64129;53.508;10.476;2023-12-14T04:23:24;5.63;;;2.72;;
75542;SDS011;64129;53.508;10.476;2023-12-14T04:25:50;5.03;;;2.50;;
75542;SDS011;64129;53.508;10.476;2023-12-14T04:28:17;3.85;;;2.78;;
75542;SDS011;64129;53.508;10.476;2023-12-14T04:30:44;3.22;;;2.05;;
75542;SDS011;64129;53.508;10.476;2023-12-14T04:33:11;3.50;;;2.30;;
75542;SDS011;64129;53.508;10.476;2023-12-14T04:35:38;6.05;;;2.97;;
75542;SDS011;64129;53.508;10.476;2023-12-14T04:38:05;4.40;;;2.53;;
75542;SDS011;64129;53.508;10.476;2023-12-14T04:40:32;5.70;;;2.85;;
75542;SDS011;64129;53.508;10.476;2023-12-14T04:42:59;4.85;;;2.75;;
75542;SDS011;64129;53.508;10.476;2023-12-14T04:45:26;5.93;;;2.85;;
75542;SDS011;64129;53.508;10.476;2023-12-14T04:47:53;5.20;;;2.97;;
75542;SDS011;64129;53.508;10.476;2023-12-14T04:50:20;6.25;;;2.75;;
75542;SDS011;64129;53.508;10.476;2023-12-14T04:52:47;6.20;;;2.60;;
75542;SDS011;64129;53.508;10.476;2023-12-14T04:55:14;6.07;;;3.03;;
75542;SDS011;64129;53.508;10.476;2023-12-14T04:57:41;4.13;;;2.58;;
75542;SDS011;64129;53.508;10.476;2023-12-14T05:00:07;5.90;;;2.92;;
75542;SDS011;64129;53.508;10.476;2023-12-14T05:02:35;5.03;;;2.60;;
75542;SDS011;64129;53.508;10.476;2023-12-14T05:05:01;4.55;;;3.10;;
75542;SDS011;64129;53.508;10.476;2023-12-14T05:07:29;4.55;;;3.10;;
75542;SDS011;64129;53.508;10.476;2023-12-14T05:09:56;6.32;;;2.85;;
75542;SDS011;64129;53.508;10.476;2023-12-14T05:12:23;8.30;;;3.55;;
75542;SDS011;64129;53.508;10.476;2023-12-14T05:14:52;5.35;;;3.10;;
75542;SDS011;64129;53.508;10.476;2023-12-14T05:17:19;7.38;;;3.38;;
75542;SDS011;64129;53.508;10.476;2023-12-14T05:19:46;5.63;;;3.42;;
75542;SDS011;64129;53.508;10.476;2023-12-14T05:22:12;5.68;;;3.40;;
75542;SDS011;64129;53.508;10.476;2023-12-14T05:24:39;7.32;;;3.10;;
75542;SDS011;64129;53.508;10.476;2023-12-14T05:27:06;7.40;;;3.70;;
75542;SDS011;64129;53.508;10.476;2023-12-14T05:29:33;5.43;;;3.10;;
75542;SDS011;64129;53.508;10.476;2023-12-14T05:32:01;6.68;;;3.53;;
75542;SDS011;64129;53.508;10.476;2023-12-14T05:34:27;8.23;;;3.55;;
75542;SDS011;64129;53.508;10.476;2023-12-14T05:36:54;7.65;;;3.72;;
75542;SDS011;64129;53.508;10.476;2023-12-14T05:39:21;6.00;;;3.30;;
75542;SDS011;64129;53.508;10.476;2023-12-14T05:41:47;4.78;;;2.92;;
75542;SDS011;64129;53.508;10.476;2023-12-14T05:44:14;9.73;;;4.57;;
75542;SDS011;64129;53.508;10.476;2023-12-14T05:46:41;6.68;;;3.75;;
75542;SDS011;64129;53.508;10.476;2023-12-14T05:49:08;5.10;;;3.30;;
75542;SDS011;64129;53.508;10.476;2023-12-14T05:51:35;5.75;;;3.47;;
75542;SDS011;64129;53.508;10.476;2023-12-14T05:54:03;7.60;;;3.42;;
75542;SDS011;64129;53.508;10.476;2023-12-14T05:56:30;8.07;;;3.90;;
75542;SDS011;64129;53.508;10.476;2023-12-14T05:58:56;9.00;;;3.53;;
75542;SDS011;64129;53.508;10.476;2023-12-14T06:01:23;7.63;;;3.80;;
75542;SDS011;64129;53.508;10.476;2023-12-14T06:03:51;9.20;;;4.57;;
75542;SDS011;64129;53.508;10.476;2023-12-14T06:06:17;10.48;;;4.57;;
75542;SDS011;64129;53.508;10.476;2023-12-14T06:08:45;7.55;;;3.97;;
75542;SDS011;64129;53.508;10.476;2023-12-14T06:11:12;8.00;;;4.47;;
75542;SDS011;64129;53.508;10.476;2023-12-14T06:13:38;6.95;;;4.10;;
75542;SDS011;64129;53.508;10.476;2023-12-14T06:16:06;9.10;;;4.18;;
75542;SDS011;64129;53.508;10.476;2023-12-14T06:18:39;9.20;;;4.43;;
75542;SDS011;64129;53.508;10.476;2023-12-14T06:21:08;11.90;;;5.13;;
75542;SDS011;64129;53.508;10.476;2023-12-14T06:23:37;9.32;;;4.35;;
75542;SDS011;64129;53.508;10.476;2023-12-14T06:26:04;7.53;;;3.80;;
75542;SDS011;64129;53.508;10.476;2023-12-14T06:28:31;8.07;;;3.95;;
75542;SDS011;64129;53.508;10.476;2023-12-14T06:30:58;7.40;;;3.70;;
75542;SDS011;64129;53.508;10.476;2023-12-14T06:33:25;5.93;;;3.78;;
75542;SDS011;64129;53.508;10.476;2023-12-14T06:35:51;6.90;;;4.20;;
75542;SDS011;64129;53.508;10.476;2023-12-14T06:38:18;7.07;;;4.30;;
75542;SDS011;64129;53.508;10.476;2023-12-14T06:40:46;10.82;;;4.95;;
75542;SDS011;64129;53.508;10.476;2023-12-14T06:43:12;15.48;;;4.70;;
75542;SDS011;64129;53.508;10.476;2023-12-14T06:45:39;8.93;;;4.72;;
75542;SDS011;64129;53.508;10.476;2023-12-14T06:48:06;7.53;;;4.53;;
75542;SDS011;64129;53.508;10.476;2023-12-14T06:50:33;9.82;;;4.13;;
75542;SDS011;64129;53.508;10.476;2023-12-14T06:52:59;8.35;;;4.95;;
75542;SDS011;64129;53.508;10.476;2023-12-14T06:55:26;7.60;;;3.97;;
75542;SDS011;64129;53.508;10.476;2023-12-14T06:57:53;7.88;;;4.38;;
75542;SDS011;64129;53.508;10.476;2023-12-14T07:00:20;8.77;;;4.20;;
75542;SDS011;64129;53.508;10.476;2023-12-14T07:02:47;9.45;;;3.95;;
75542;SDS011;64129;53.508;10.476;2023-12-14T07:05:13;7.32;;;3.97;;
75542;SDS011;64129;53.508;10.476;2023-12-14T07:07:40;7.88;;;3.63;;
75542;SDS011;64129;53.508;10.476;2023-12-14T07:10:07;13.55;;;4.45;;
75542;SDS011;64129;53.508;10.476;2023-12-14T07:12:34;8.32;;;4.30;;
75542;SDS011;64129;53.508;10.476;2023-12-14T07:15:01;8.00;;;4.15;;
75542;SDS011;64129;53.508;10.476;2023-12-14T07:17:28;9.27;;;4.15;;
75542;SDS011;64129;53.508;10.476;2023-12-14T07:19:54;8.43;;;3.85;;
75542;SDS011;64129;53.508;10.476;2023-12-14T07:22:23;6.00;;;3.78;;
75542;SDS011;64129;53.508;10.476;2023-12-14T07:24:50;7.90;;;4.50;;
75542;SDS011;64129;53.508;10.476;2023-12-14T07:27:17;7.65;;;4.22;;
75542;SDS011;64129;53.508;10.476;2023-12-14T07:29:44;9.77;;;4.32;;
75542;SDS011;64129;53.508;10.476;2023-12-14T07:32:11;7.95;;;3.83;;
75542;SDS011;64129;53.508;10.476;2023-12-14T07:34:39;6.72;;;4.32;;
75542;SDS011;64129;53.508;10.476;2023-12-14T07:37:05;6.68;;;3.42;;
75542;SDS011;64129;53.508;10.476;2023-12-14T07:39:32;6.25;;;3.53;;
75542;SDS011;64129;53.508;10.476;2023-12-14T07:41:59;5.57;;;4.03;;
75542;SDS011;64129;53.508;10.476;2023-12-14T07:44:26;6.70;;;3.80;;
75542;SDS011;64129;53.508;10.476;2023-12-14T07:46:56;9.30;;;3.83;;
75542;SDS011;64129;53.508;10.476;2023-12-14T07:49:25;6.20;;;3.88;;
75542;SDS011;64129;53.508;10.476;2023-12-14T07:51:52;5.28;;;3.78;;
75542;SDS011;64129;53.508;10.476;2023-12-14T07:54:19;7.70;;;3.88;;
75542;SDS011;64129;53.508;10.476;2023-12-14T07:56:46;6.00;;;3.72;;
75542;SDS011;64129;53.508;10.476;2023-12-14T07:59:12;7.40;;;3.45;;
75542;SDS011;64129;53.508;10.476;2023-12-14T08:01:39;7.10;;;4.13;;
75542;SDS011;64129;53.508;10.476;2023-12-14T08:04:06;8.23;;;4.22;;
75542;SDS011;64129;53.508;10.476;2023-12-14T08:06:33;6.65;;;3.67;;
75542;SDS011;64129;53.508;10.476;2023-12-14T08:09:00;6.45;;;3.88;;
75542;SDS011;64129;53.508;10.476;2023-12-14T08:11:27;10.60;;;4.00;;
75542;SDS011;64129;53.508;10.476;2023-12-14T08:13:53;7.15;;;3.75;;
75542;SDS011;64129;53.508;10.476;2023-12-14T08:16:20;7.70;;;4.00;;
75542;SDS011;64129;53.508;10.476;2023-12-14T08:18:47;6.20;;;3.70;;
75542;SDS011;64129;53.508;10.476;2023-12-14T08:21:15;7.80;;;4.05;;
75542;SDS011;64129;53.508;10.476;2023-12-14T08:23:42;7.90;;;3.50;;
75542;SDS011;64129;53.508;10.476;2023-12-14T08:26:09;6.63;;;3.65;;
75542;SDS011;64129;53.508;10.476;2023-12-14T08:28:39;5.95;;;3.30;;
75542;SDS011;64129;53.508;10.476;2023-12-14T08:31:06;7.43;;;3.95;;
75542;SDS011;64129;53.508;10.476;2023-12-14T08:36:01;7.72;;;3.70;;
75542;SDS011;64129;53.508;10.476;2023-12-14T08:38:28;7.00;;;3.78;;
75542;SDS011;64129;53.508;10.476;2023-12-14T08:40:55;8.95;;;3.72;;
75542;SDS011;64129;53.508;10.476;2023-12-14T08:43:22;7.55;;;3.60;;
75542;SDS011;64129;53.508;10.476;2023-12-14T08:45:48;8.52;;;4.93;;
75542;SDS011;64129;53.508;10.476;2023-12-14T08:48:15;7.10;;;4.10;;
75542;SDS011;64129;53.508;10.476;2023-12-14T08:50:42;6.30;;;3.70;;
75542;SDS011;64129;53.508;10.476;2023-12-14T08:53:09;8.68;;;4.60;;
75542;SDS011;64129;53.508;10.476;2023-12-14T08:55:36;7.93;;;3.95;;
75542;SDS011;64129;53.508;10.476;2023-12-14T08:58:03;8.00;;;4.32;;
75542;SDS011;64129;53.508;10.476;2023-12-14T09:00:29;8.02;;;4.57;;
75542;SDS011;64129;53.508;10.476;2023-12-14T09:02:56;9.60;;;4.53;;
75542;SDS011;64129;53.508;10.476;2023-12-14T09:05:23;9.63;;;4.45;;
75542;SDS011;64129;53.508;10.476;2023-12-14T09:07:50;7.35;;;4.03;;
75542;SDS011;64129;53.508;10.476;2023-12-14T09:10:21;7.18;;;3.95;;
75542;SDS011;64129;53.508;10.476;2023-12-14T09:12:49;8.23;;;4.13;;
75542;SDS011;64129;53.508;10.476;2023-12-14T09:15:15;7.50;;;3.88;;
75542;SDS011;64129;53.508;10.476;2023-12-14T09:17:42;7.75;;;4.70;;
75542;SDS011;64129;53.508;10.476;2023-12-14T09:20:09;7.90;;;4.45;;
75542;SDS011;64129;53.508;10.476;2023-12-14T09:22:37;8.52;;;4.50;;
75542;SDS011;64129;53.508;10.476;2023-12-14T09:25:04;12.40;;;4.40;;
75542;SDS011;64129;53.508;10.476;2023-12-14T09:27:31;5.63;;;3.85;;
75542;SDS011;64129;53.508;10.476;2023-12-14T09:29:58;7.90;;;4.15;;
75542;SDS011;64129;53.508;10.476;2023-12-14T09:32:25;8.32;;;3.95;;
75542;SDS011;64129;53.508;10.476;2023-12-14T09:34:52;5.97;;;3.75;;
75542;SDS011;64129;53.508;10.476;2023-12-14T09:37:23;5.93;;;4.95;;
75542;SDS011;64129;53.508;10.476;2023-12-14T09:39:49;8.50;;;4.63;;
75542;SDS011;64129;53.508;10.476;2023-12-14T09:42:17;6.55;;;4.20;;
75542;SDS011;64129;53.508;10.476;2023-12-14T09:44:46;6.72;;;3.83;;
75542;SDS011;64129;53.508;10.476;2023-12-14T09:47:14;6.35;;;4.20;;
75542;SDS011;64129;53.508;10.476;2023-12-14T09:49:41;7.43;;;4.03;;
75542;SDS011;64129;53.508;10.476;2023-12-14T09:52:11;6.75;;;4.07;;
75542;SDS011;64129;53.508;10.476;2023-12-14T09:54:39;5.65;;;3.53;;
75542;SDS011;64129;53.508;10.476;2023-12-14T09:57:06;7.15;;;3.72;;
75542;SDS011;64129;53.508;10.476;2023-12-14T09:59:33;5.60;;;3.38;;
75542;SDS011;64129;53.508;10.476;2023-12-14T10:02:09;4.90;;;3.47;;
75542;SDS011;64129;53.508;10.476;2023-12-14T10:04:37;7.07;;;3.65;;
75542;SDS011;64129;53.508;10.476;2023-12-14T10:07:04;6.65;;;4.07;;
75542;SDS011;64129;53.508;10.476;2023-12-14T10:09:34;6.88;;;3.42;;
75542;SDS011;64129;53.508;10.476;2023-12-14T10:12:03;6.97;;;3.88;;
75542;SDS011;64129;53.508;10.476;2023-12-14T10:14:32;4.80;;;3.78;;
75542;SDS011;64129;53.508;10.476;2023-12-14T10:17:13;6.05;;;3.67;;
75542;SDS011;64129;53.508;10.476;2023-12-14T10:19:47;4.93;;;3.67;;
75542;SDS011;64129;53.508;10.476;2023-12-14T10:22:15;8.30;;;3.67;;
75542;SDS011;64129;53.508;10.476;2023-12-14T10:24:44;8.25;;;3.70;;
75542;SDS011;64129;53.508;10.476;2023-12-14T10:27:14;6.30;;;3.72;;
75542;SDS011;64129;53.508;10.476;2023-12-14T10:29:42;5.85;;;3.60;;
75542;SDS011;64129;53.508;10.476;2023-12-14T10:32:11;5.13;;;3.53;;
75542;SDS011;64129;53.508;10.476;2023-12-14T10:34:38;6.50;;;3.83;;
75542;SDS011;64129;53.508;10.476;2023-12-14T10:37:06;5.93;;;3.65;;
75542;SDS011;64129;53.508;10.476;2023-12-14T10:39:33;5.30;;;3.47;;
75542;SDS011;64129;53.508;10.476;2023-12-14T10:42:02;6.28;;;4.20;;
75542;SDS011;64129;53.508;10.476;2023-12-14T10:44:34;5.35;;;3.58;;
75542;SDS011;64129;53.508;10.476;2023-12-14T10:47:03;4.43;;;3.42;;
75542;SDS011;64129;53.508;10.476;2023-12-14T10:49:33;5.35;;;2.95;;
75542;SDS011;64129;53.508;10.476;2023-12-14T10:52:01;3.65;;;2.85;;
75542;SDS011;64129;53.508;10.476;2023-12-14T10:56:58;3.78;;;2.85;;
75542;SDS011;64129;53.508;10.476;2023-12-14T10:59:25;4.97;;;3.20;;
75542;SDS011;64129;53.508;10.476;2023-12-14T11:01:53;4.68;;;2.75;;
75542;SDS011;64129;53.508;10.476;2023-12-14T11:06:48;4.38;;;2.75;;
75542;SDS011;64129;53.508;10.476;2023-12-14T11:09:16;3.78;;;2.92;;
75542;SDS011;64129;53.508;10.476;2023-12-14T11:12:06;5.70;;;3.50;;
75542;SDS011;64129;53.508;10.476;2023-12-14T11:14:34;5.68;;;3.00;;
75542;SDS011;64129;53.508;10.476;2023-12-14T11:17:03;5.82;;;3.60;;
75542;SDS011;64129;53.508;10.476;2023-12-14T11:19:33;4.03;;;3.05;;
75542;SDS011;64129;53.508;10.476;2023-12-14T11:22:09;4.72;;;2.92;;
75542;SDS011;64129;53.508;10.476;2023-12-14T11:24:42;4.75;;;2.78;;
75542;SDS011;64129;53.508;10.476;2023-12-14T11:27:19;5.22;;;3.45;;
75542;SDS011;64129;53.508;10.476;2023-12-14T11:29:47;8.45;;;3.40;;
75542;SDS011;64129;53.508;10.476;2023-12-14T11:32:16;6.07;;;3.17;;
75542;SDS011;64129;53.508;10.476;2023-12-14T11:34:43;4.72;;;3.20;;
75542;SDS011;64129;53.508;10.476;2023-12-14T11:37:13;5.50;;;3.42;;
75542;SDS011;64129;53.508;10.476;2023-12-14T11:39:40;4.38;;;3.42;;
75542;SDS011;64129;53.508;10.476;2023-12-14T11:42:07;4.88;;;3.50;;
75542;SDS011;64129;53.508;10.476;2023-12-14T11:44:37;6.38;;;3.25;;
75542;SDS011;64129;53.508;10.476;2023-12-14T11:47:04;6.22;;;3.58;;
75542;SDS011;64129;53.508;10.476;2023-12-14T11:49:31;6.25;;;3.65;;
75542;SDS011;64129;53.508;10.476;2023-12-14T11:52:01;4.80;;;3.10;;
75542;SDS011;64129;53.508;10.476;2023-12-14T11:54:29;4.80;;;3.40;;
75542;SDS011;64129;53.508;10.476;2023-12-14T11:56:56;7.00;;;3.30;;
75542;SDS011;64129;53.508;10.476;2023-12-14T11:59:23;4.90;;;2.95;;
75542;SDS011;64129;53.508;10.476;2023-12-14T12:02:00;6.47;;;2.65;;
75542;SDS011;64129;53.508;10.476;2023-12-14T12:04:27;6.32;;;2.90;;
75542;SDS011;64129;53.508;10.476;2023-12-14T12:07:01;6.78;;;3.17;;
75542;SDS011;64129;53.508;10.476;2023-12-14T12:09:33;3.95;;;2.63;;
75542;SDS011;64129;53.508;10.476;2023-12-14T12:12:00;6.00;;;2.58;;
75542;SDS011;64129;53.508;10.476;2023-12-14T12:14:27;3.50;;;2.40;;
75542;SDS011;64129;53.508;10.476;2023-12-14T12:16:55;3.92;;;2.33;;
75542;SDS011;64129;53.508;10.476;2023-12-14T12:19:21;3.42;;;1.80;;
75542;SDS011;64129;53.508;10.476;2023-12-14T12:21:48;5.93;;;2.55;;
75542;SDS011;64129;53.508;10.476;2023-12-14T12:24:15;3.05;;;2.22;;
75542;SDS011;64129;53.508;10.476;2023-12-14T12:26:43;4.70;;;2.40;;
75542;SDS011;64129;53.508;10.476;2023-12-14T12:29:10;6.20;;;2.83;;
75542;SDS011;64129;53.508;10.476;2023-12-14T12:31:37;3.53;;;2.20;;
75542;SDS011;64129;53.508;10.476;2023-12-14T12:34:04;6.50;;;2.80;;
75542;SDS011;64129;53.508;10.476;2023-12-14T12:36:30;3.35;;;2.22;;
75542;SDS011;64129;53.508;10.476;2023-12-14T12:38:57;4.70;;;2.35;;
75542;SDS011;64129;53.508;10.476;2023-12-14T12:41:24;3.60;;;2.50;;
75542;SDS011;64129;53.508;10.476;2023-12-14T12:43:51;3.65;;;2.58;;
75542;SDS011;64129;53.508;10.476;2023-12-14T12:46:18;4.60;;;2.50;;
75542;SDS011;64129;53.508;10.476;2023-12-14T12:48:45;4.13;;;2.05;;
75542;SDS011;64129;53.508;10.476;2023-12-14T12:56:06;3.55;;;2.45;;
75542;SDS011;64129;53.508;10.476;2023-12-14T12:58:33;3.28;;;2.45;;
75542;SDS011;64129;53.508;10.476;2023-12-14T13:01:00;4.85;;;2.10;;
75542;SDS011;64129;53.508;10.476;2023-12-14T13:03:27;4.22;;;2.15;;
75542;SDS011;64129;53.508;10.476;2023-12-14T13:05:54;6.07;;;2.83;;
75542;SDS011;64129;53.508;10.476;2023-12-14T13:08:21;5.93;;;2.70;;
75542;SDS011;64129;53.508;10.476;2023-12-14T13:10:49;5.15;;;2.70;;
75542;SDS011;64129;53.508;10.476;2023-12-14T13:13:19;5.03;;;2.90;;
75542;SDS011;64129;53.508;10.476;2023-12-14T13:15:46;6.95;;;2.75;;
75542;SDS011;64129;53.508;10.476;2023-12-14T13:18:12;4.70;;;2.28;;
75542;SDS011;64129;53.508;10.476;2023-12-14T13:20:42;5.93;;;2.95;;
75542;SDS011;64129;53.508;10.476;2023-12-14T13:23:09;5.45;;;2.63;;
75542;SDS011;64129;53.508;10.476;2023-12-14T13:25:36;5.75;;;2.92;;
75542;SDS011;64129;53.508;10.476;2023-12-14T13:28:03;3.10;;;2.40;;
75542;SDS011;64129;53.508;10.476;2023-12-14T13:30:31;3.92;;;2.70;;
75542;SDS011;64129;53.508;10.476;2023-12-14T13:32:58;5.82;;;3.00;;
75542;SDS011;64129;53.508;10.476;2023-12-14T13:35:25;4.00;;;2.85;;
75542;SDS011;64129;53.508;10.476;2023-12-14T13:37:51;7.35;;;3.20;;
75542;SDS011;64129;53.508;10.476;2023-12-14T13:40:18;4.57;;;3.10;;
75542;SDS011;64129;53.508;10.476;2023-12-14T13:42:45;3.53;;;2.85;;
75542;SDS011;64129;53.508;10.476;2023-12-14T13:45:12;3.75;;;2.85;;
75542;SDS011;64129;53.508;10.476;2023-12-14T13:47:39;4.43;;;2.63;;
75542;SDS011;64129;53.508;10.476;2023-12-14T13:50:06;6.88;;;3.15;;
75542;SDS011;64129;53.508;10.476;2023-12-14T13:52:33;5.93;;;3.00;;
75542;SDS011;64129;53.508;10.476;2023-12-14T13:55:00;6.95;;;3.22;;
75542;SDS011;64129;53.508;10.476;2023-12-14T13:57:27;5.75;;;3.08;;
75542;SDS011;64129;53.508;10.476;2023-12-14T13:59:54;5.13;;;3.13;;
75542;SDS011;64129;53.508;10.476;2023-12-14T14:02:20;6.72;;;3.15;;
75542;SDS011;64129;53.508;10.476;2023-12-14T14:04:48;5.80;;;2.80;;
75542;SDS011;64129;53.508;10.476;2023-12-14T14:07:15;7.78;;;3.38;;
75542;SDS011;64129;53.508;10.476;2023-12-14T14:09:42;6.55;;;3.35;;
75542;SDS011;64129;53.508;10.476;2023-12-14T14:12:09;6.28;;;3.22;;
75542;SDS011;64129;53.508;10.476;2023-12-14T14:14:36;6.10;;;3.25;;
75542;SDS011;64129;53.508;10.476;2023-12-14T14:17:03;9.00;;;3.45;;
75542;SDS011;64129;53.508;10.476;2023-12-14T14:19:32;6.88;;;2.95;;
75542;SDS011;64129;53.508;10.476;2023-12-14T14:21:59;4.97;;;3.33;;
75542;SDS011;64129;53.508;10.476;2023-12-14T14:24:26;4.97;;;2.85;;
75542;SDS011;64129;53.508;10.476;2023-12-14T14:26:53;3.75;;;2.80;;
75542;SDS011;64129;53.508;10.476;2023-12-14T14:29:20;5.45;;;2.30;;
75542;SDS011;64129;53.508;10.476;2023-12-14T14:31:46;3.92;;;2.97;;
75542;SDS011;64129;53.508;10.476;2023-12-14T14:34:13;4.63;;;2.72;;
75542;SDS011;64129;53.508;10.476;2023-12-14T14:36:40;5.50;;;3.15;;
75542;SDS011;64129;53.508;10.476;2023-12-14T14:39:07;8.15;;;3.50;;
75542;SDS011;64129;53.508;10.476;2023-12-14T14:41:34;8.85;;;3.97;;
75542;SDS011;64129;53.508;10.476;2023-12-14T14:44:01;11.43;;;4.88;;
75542;SDS011;64129;53.508;10.476;2023-12-14T14:46:28;7.32;;;3.90;;